Time;durP1;ratioP1;P1;durP2;ratioP2;P2;SDS_P1;SDS_P2;PMS_P1;PMS_P2;Temp;Humidity;BMP_temperature;BMP_pressure;BME280_temperature;BME280_humidity;BME280_pressure;Samples;Min_cycle;Max_cycle;Signal;HPM_P1;HPM_P2
2024/01/15 00:00:54;;;;;;;0.40;0.40;;;0.70;99.90;;;;;;5043949;28;20207;-85
2024/01/15 00:03:20;;;;;;;12.40;4.82;;;0.70;99.90;;;;;;5036234;28;20217;-84
2024/01/15 00:05:47;;;;;;;0.50;0.50;;;0.80;99.90;;;;;;5036067;28;20220;-85
2024/01/15 00:08:14;;;;;;;0.50;0.50;;;0.80;99.90;;;;;;5026137;28;20198;-84
2024/01/15 00:10:41;;;;;;;2.55;2.00;;;0.80;99.90;;;;;;5035294;28;20210;-83
2024/01/15 00:13:08;;;;;;;4.70;3.05;;;0.80;99.90;;;;;;5035704;28;20619;-85
2024/01/15 00:15:36;;;;;;;8.02;4.78;;;0.80;99.90;;;;;;5032168;28;20682;-82
2024/01/15 00:18:03;;;;;;;1.65;1.55;;;0.80;99.90;;;;;;5024538;28;20580;-81
2024/01/15 00:20:29;;;;;;;6.38;3.92;;;0.80;99.90;;;;;;5029444;28;20690;-81
2024/01/15 00:22:56;;;;;;;2.55;2.08;;;0.80;99.90;;;;;;5023838;28;20204;-83
2024/01/15 00:25:23;;;;;;;1.83;1.77;;;0.80;99.90;;;;;;5026125;28;20302;-82
2024/01/15 00:27:50;;;;;;;10.73;10.10;;;0.80;99.90;;;;;;5017874;28;20201;-82
2024/01/15 00:30:17;;;;;;;5.72;3.67;;;0.80;99.90;;;;;;5021871;28;20728;-81
2024/01/15 00:32:45;;;;;;;0.77;0.60;;;0.90;99.90;;;;;;5022350;28;20211;-81
2024/01/15 00:35:12;;;;;;;17.50;6.72;;;0.90;99.90;;;;;;5024945;28;20691;-82
2024/01/15 00:37:39;;;;;;;7.80;2.80;;;0.90;99.90;;;;;;5026023;28;20200;-83
2024/01/15 00:40:07;;;;;;;5.93;5.45;;;0.90;99.90;;;;;;5025946;28;20208;-81
2024/01/15 00:42:34;;;;;;;2.00;1.30;;;0.90;99.90;;;;;;5025874;28;20298;-81
2024/01/15 00:45:01;;;;;;;6.80;4.53;;;0.90;99.90;;;;;;5023945;28;20228;-79
2024/01/15 00:47:28;;;;;;;4.57;4.00;;;0.90;99.90;;;;;;5022444;28;20200;-82
2024/01/15 00:49:56;;;;;;;0.60;0.60;;;0.90;99.90;;;;;;5022318;28;20207;-82
2024/01/15 00:52:23;;;;;;;4.88;3.75;;;0.90;99.90;;;;;;5025960;28;20205;-81
2024/01/15 00:54:49;;;;;;;2.45;2.35;;;0.90;99.90;;;;;;5025214;28;20230;-81
2024/01/15 00:57:16;;;;;;;1.50;1.50;;;0.90;99.90;;;;;;5017243;28;20188;-81
2024/01/15 00:59:43;;;;;;;0.50;0.50;;;0.90;99.90;;;;;;5024763;28;20203;-81
2024/01/15 01:02:10;;;;;;;11.05;7.13;;;0.90;99.90;;;;;;5024951;28;20199;-81
2024/01/15 01:04:36;;;;;;;16.35;9.80;;;1.00;99.90;;;;;;5025654;28;20277;-81
2024/01/15 01:07:05;;;;;;;1.85;1.70;;;1.00;99.90;;;;;;5023435;28;20207;-82
2024/01/15 01:09:31;;;;;;;8.57;5.20;;;0.90;99.90;;;;;;5021401;28;20196;-81
2024/01/15 01:11:58;;;;;;;6.00;5.55;;;0.90;99.90;;;;;;5021722;28;20207;-81
2024/01/15 01:14:25;;;;;;;5.07;1.75;;;0.90;99.90;;;;;;5024991;28;20221;-82
2024/01/15 01:16:51;;;;;;;3.55;1.92;;;1.00;99.90;;;;;;5025170;28;20199;-81
2024/01/15 01:19:18;;;;;;;2.80;2.60;;;0.90;99.90;;;;;;5021379;28;20572;-81
2024/01/15 01:21:45;;;;;;;0.50;0.47;;;1.00;99.90;;;;;;5021435;28;20217;-82
2024/01/15 01:24:13;;;;;;;4.40;2.45;;;1.00;99.90;;;;;;5023477;28;20231;-80
2024/01/15 01:26:40;;;;;;;18.10;10.60;;;1.00;99.90;;;;;;5024911;28;20225;-81
2024/01/15 01:29:06;;;;;;;4.10;3.15;;;1.00;99.90;;;;;;5024836;28;20246;-80
2024/01/15 01:31:33;;;;;;;9.15;4.40;;;1.00;99.90;;;;;;5024569;28;20195;-82
2024/01/15 01:34:00;;;;;;;1.70;0.85;;;1.00;99.90;;;;;;5024295;28;20534;-80
2024/01/15 01:36:27;;;;;;;1.98;1.67;;;1.00;99.90;;;;;;5021638;28;20192;-81
2024/01/15 01:38:54;;;;;;;2.67;2.47;;;1.00;99.90;;;;;;5021303;28;20207;-83
2024/01/15 01:41:24;;;;;;;1.58;0.95;;;1.00;99.90;;;;;;5026168;28;20192;-81
2024/01/15 01:43:50;;;;;;;1.15;1.15;;;1.00;99.90;;;;;;5028256;28;20233;-82
2024/01/15 01:46:18;;;;;;;20.30;12.18;;;1.00;99.90;;;;;;5025274;28;20227;-81
2024/01/15 01:48:45;;;;;;;5.50;4.95;;;1.00;99.90;;;;;;5023161;28;20206;-81
2024/01/15 01:51:13;;;;;;;0.70;0.70;;;1.00;99.90;;;;;;5026191;28;20195;-80
2024/01/15 01:53:40;;;;;;;2.90;1.02;;;1.00;99.90;;;;;;5022361;28;20678;-81
2024/01/15 01:56:07;;;;;;;1.83;1.67;;;1.00;99.90;;;;;;5027645;28;20198;-83
2024/01/15 01:58:35;;;;;;;5.95;1.50;;;1.00;99.90;;;;;;5029505;28;20678;-82
2024/01/15 02:01:02;;;;;;;9.45;5.25;;;1.00;99.90;;;;;;5027010;28;20203;-81
2024/01/15 02:03:29;;;;;;;2.05;1.95;;;1.00;99.90;;;;;;5024539;28;20212;-81
2024/01/15 02:05:56;;;;;;;6.93;5.82;;;1.00;99.90;;;;;;5024019;28;20223;-81
2024/01/15 02:08:23;;;;;;;1.98;1.23;;;1.00;99.90;;;;;;5024877;28;20207;-83
2024/01/15 02:10:50;;;;;;;8.13;3.97;;;1.00;99.90;;;;;;5024495;28;20225;-81
2024/01/15 02:13:18;;;;;;;6.88;3.83;;;1.00;99.90;;;;;;5023948;28;20208;-81
2024/01/15 02:15:47;;;;;;;2.65;0.98;;;1.10;99.90;;;;;;5022462;28;20869;-81
2024/01/15 02:18:13;;;;;;;1.58;1.48;;;1.10;99.90;;;;;;5025659;28;20803;-81
2024/01/15 02:20:40;;;;;;;0.82;0.82;;;1.00;99.90;;;;;;5024240;28;20203;-82
2024/01/15 02:23:11;;;;;;;1.83;1.73;;;1.00;99.90;;;;;;5025291;28;20203;-82
2024/01/15 02:25:38;;;;;;;0.82;0.73;;;1.00;99.90;;;;;;5027503;28;20250;-82
2024/01/15 02:28:06;;;;;;;1.70;1.60;;;1.00;99.90;;;;;;5018911;28;20584;-81
2024/01/15 02:30:35;;;;;;;1.45;1.42;;;1.00;99.90;;;;;;5027207;28;20204;-82
2024/01/15 02:33:02;;;;;;;0.40;0.40;;;1.00;99.90;;;;;;5026748;28;20211;-81
2024/01/15 02:35:29;;;;;;;3.00;2.80;;;1.10;99.90;;;;;;5032005;28;20319;-82
2024/01/15 02:37:55;;;;;;;0.70;0.70;;;1.10;99.90;;;;;;5030841;28;20225;-82
2024/01/15 02:40:23;;;;;;;4.60;3.20;;;1.10;99.90;;;;;;5024140;28;20665;-81
2024/01/15 02:42:50;;;;;;;3.45;1.30;;;1.00;99.90;;;;;;5023840;28;20215;-82
2024/01/15 02:45:17;;;;;;;4.30;3.40;;;1.00;99.90;;;;;;5025440;28;20228;-81
2024/01/15 02:47:44;;;;;;;2.20;2.08;;;1.00;99.90;;;;;;5026619;28;20216;-82
2024/01/15 02:50:11;;;;;;;10.82;4.60;;;1.00;99.90;;;;;;5026197;28;20195;-80
2024/01/15 02:52:37;;;;;;;3.42;2.30;;;1.10;99.90;;;;;;5023135;28;20201;-82
2024/01/15 02:55:05;;;;;;;5.45;3.05;;;1.10;99.90;;;;;;5031611;28;20224;-79
2024/01/15 02:57:33;;;;;;;2.75;2.60;;;1.00;99.90;;;;;;5023786;28;20196;-81
2024/01/15 02:59:59;;;;;;;1.05;0.90;;;1.00;99.90;;;;;;5023473;28;20207;-81
2024/01/15 03:02:26;;;;;;;4.55;3.95;;;1.00;99.90;;;;;;5026472;28;20207;-81
2024/01/15 03:04:53;;;;;;;2.42;1.75;;;1.00;99.90;;;;;;5026855;28;20222;-81
2024/01/15 03:07:20;;;;;;;2.72;2.40;;;1.00;99.90;;;;;;5024668;28;20220;-82
2024/01/15 03:09:46;;;;;;;0.95;0.95;;;1.00;99.90;;;;;;5023304;28;20664;-83
2024/01/15 03:12:13;;;;;;;0.70;0.63;;;1.00;99.90;;;;;;5023273;28;20200;-79
2024/01/15 03:14:41;;;;;;;2.63;2.53;;;1.00;99.90;;;;;;5023435;28;20216;-81
2024/01/15 03:17:09;;;;;;;1.23;1.15;;;1.10;99.90;;;;;;5023088;28;20200;-82
2024/01/15 03:19:36;;;;;;;4.00;2.08;;;1.10;99.90;;;;;;5027272;28;20258;-82
2024/01/15 03:22:03;;;;;;;2.08;1.92;;;1.10;99.90;;;;;;5026908;28;20203;-81
2024/01/15 03:24:30;;;;;;;11.25;7.70;;;1.10;99.90;;;;;;5023151;28;20243;-82
2024/01/15 03:26:56;;;;;;;8.13;4.70;;;1.10;99.90;;;;;;5023170;28;20224;-81
2024/01/15 03:29:23;;;;;;;1.17;1.10;;;1.10;99.90;;;;;;5031063;28;20575;-79
2024/01/15 03:31:51;;;;;;;1.60;1.50;;;1.10;99.90;;;;;;5022967;28;20684;-81
2024/01/15 03:34:18;;;;;;;0.50;0.50;;;1.00;99.90;;;;;;5026395;28;20231;-82
2024/01/15 03:36:44;;;;;;;10.05;3.97;;;1.00;99.90;;;;;;5026297;28;20198;-81
2024/01/15 03:39:11;;;;;;;1.30;1.20;;;1.00;99.90;;;;;;5025844;28;20195;-81
2024/01/15 03:41:38;;;;;;;0.63;0.63;;;1.10;99.90;;;;;;5027395;28;20579;-83
2024/01/15 03:44:05;;;;;;;5.20;3.03;;;1.10;99.90;;;;;;5026428;28;20232;-80
2024/01/15 03:46:31;;;;;;;0.95;0.93;;;1.10;99.90;;;;;;5022713;28;20216;-82
2024/01/15 03:49:00;;;;;;;2.38;2.17;;;1.00;99.90;;;;;;5022913;28;20279;-81
2024/01/15 03:51:27;;;;;;;2.80;2.60;;;1.00;99.90;;;;;;5030338;28;20683;-81
2024/01/15 03:53:53;;;;;;;2.80;2.60;;;1.00;99.90;;;;;;5022516;28;20227;-80
2024/01/15 03:56:20;;;;;;;4.32;2.40;;;1.10;99.90;;;;;;5031738;28;20199;-82
2024/01/15 03:58:47;;;;;;;1.80;1.45;;;1.10;99.90;;;;;;5022647;28;20581;-81
2024/01/15 04:01:14;;;;;;;1.27;1.25;;;1.10;99.90;;;;;;5022501;28;20635;-82
2024/01/15 04:03:41;;;;;;;1.05;1.05;;;1.10;99.90;;;;;;5026029;28;20212;-82
2024/01/15 04:06:09;;;;;;;0.65;0.65;;;1.00;99.90;;;;;;5026260;28;20202;-82
2024/01/15 04:08:35;;;;;;;6.72;2.53;;;1.10;99.90;;;;;;5021922;28;20201;-82
2024/01/15 04:11:02;;;;;;;1.00;1.00;;;1.10;99.90;;;;;;5022133;28;20222;-81
2024/01/15 04:13:29;;;;;;;1.35;1.25;;;1.10;99.90;;;;;;5024339;28;20227;-81
2024/01/15 04:15:56;;;;;;;5.18;2.55;;;1.10;99.90;;;;;;5025430;28;20689;-81
2024/01/15 04:18:23;;;;;;;2.35;1.45;;;1.10;99.90;;;;;;5016116;28;20196;-81
2024/01/15 04:20:50;;;;;;;4.40;1.70;;;1.20;99.90;;;;;;5021994;28;20192;-82
2024/01/15 04:23:18;;;;;;;1.85;1.05;;;1.20;99.90;;;;;;5022326;28;20197;-82
2024/01/15 04:25:45;;;;;;;1.08;0.77;;;1.20;99.90;;;;;;5025476;28;20196;-82
2024/01/15 04:28:12;;;;;;;5.32;3.08;;;1.20;99.90;;;;;;5024747;28;20243;-82
2024/01/15 04:30:39;;;;;;;2.55;1.40;;;1.20;99.90;;;;;;5021926;28;20197;-83
2024/01/15 04:33:06;;;;;;;2.55;2.35;;;1.20;99.90;;;;;;5021347;28;20572;-83
2024/01/15 04:35:33;;;;;;;5.43;3.78;;;1.20;99.90;;;;;;5020733;28;20597;-85
2024/01/15 04:38:00;;;;;;;2.63;2.40;;;1.10;99.90;;;;;;5021033;28;20193;-83
2024/01/15 04:40:28;;;;;;;4.93;1.50;;;1.20;99.90;;;;;;5021998;28;20200;-84
2024/01/15 04:42:55;;;;;;;1.52;1.42;;;1.20;99.90;;;;;;5024056;28;20196;-84
2024/01/15 04:45:22;;;;;;;4.80;4.40;;;1.20;99.90;;;;;;5022321;28;20219;-83
2024/01/15 04:47:49;;;;;;;0.60;0.60;;;1.20;99.90;;;;;;5021735;28;20216;-84
2024/01/15 04:50:16;;;;;;;4.60;3.92;;;1.20;99.90;;;;;;5021244;28;20607;-83
2024/01/15 04:52:43;;;;;;;4.72;2.08;;;1.20;99.90;;;;;;5024482;28;20195;-84
2024/01/15 04:55:10;;;;;;;40.03;2.70;;;1.20;99.90;;;;;;5017522;28;20226;-84
2024/01/15 04:57:38;;;;;;;0.43;0.40;;;1.20;99.90;;;;;;5024343;28;20191;-82
2024/01/15 05:00:06;;;;;;;0.40;0.40;;;1.20;99.90;;;;;;5024663;28;20200;-83
2024/01/15 05:02:32;;;;;;;5.18;4.05;;;1.20;99.90;;;;;;5022078;28;20200;-82
2024/01/15 05:04:59;;;;;;;10.98;5.32;;;1.20;99.90;;;;;;5021660;28;20218;-82
2024/01/15 05:07:26;;;;;;;1.63;1.52;;;1.20;99.90;;;;;;5021667;28;20592;-83
2024/01/15 05:09:52;;;;;;;5.30;2.70;;;1.20;99.90;;;;;;5025191;28;20685;-83
2024/01/15 05:12:19;;;;;;;4.63;3.17;;;1.20;99.90;;;;;;5023800;28;20192;-82
2024/01/15 05:14:47;;;;;;;14.57;4.55;;;1.20;99.90;;;;;;5021640;28;20212;-80
2024/01/15 05:17:14;;;;;;;5.32;2.38;;;1.10;99.90;;;;;;5033607;28;20192;-82
2024/01/15 05:19:41;;;;;;;2.83;2.15;;;1.10;99.90;;;;;;5031335;28;20202;-82
2024/01/15 05:22:07;;;;;;;2.17;2.08;;;1.10;99.90;;;;;;5031979;28;20199;-83
2024/01/15 05:24:34;;;;;;;4.45;2.92;;;1.10;99.90;;;;;;5029018;28;20219;-83
2024/01/15 05:27:01;;;;;;;4.10;2.53;;;1.10;99.90;;;;;;5025563;28;20211;-82
2024/01/15 05:29:28;;;;;;;0.50;0.50;;;1.10;99.90;;;;;;5031001;28;20196;-82
2024/01/15 05:31:56;;;;;;;1.98;1.80;;;1.10;99.90;;;;;;5027392;28;20619;-82
2024/01/15 05:34:22;;;;;;;3.92;1.80;;;1.10;99.90;;;;;;5034406;28;20215;-82
2024/01/15 05:36:49;;;;;;;5.43;2.40;;;1.10;99.90;;;;;;5025634;28;20192;-83
2024/01/15 05:39:16;;;;;;;1.92;1.33;;;1.10;99.90;;;;;;5033398;28;20196;-81
2024/01/15 05:41:43;;;;;;;2.17;2.08;;;1.10;99.90;;;;;;5034583;28;20682;-83
2024/01/15 05:44:09;;;;;;;0.50;0.50;;;1.10;99.90;;;;;;5024889;28;20220;-83
2024/01/15 05:46:36;;;;;;;2.35;0.88;;;1.10;99.90;;;;;;5033086;28;20208;-82
2024/01/15 05:49:04;;;;;;;1.42;1.33;;;1.10;99.90;;;;;;5025261;28;20197;-80
2024/01/15 05:51:31;;;;;;;2.60;2.38;;;1.10;99.90;;;;;;5027822;28;20196;-81
2024/01/15 05:53:58;;;;;;;6.80;4.93;;;1.10;99.90;;;;;;5024471;28;20266;-82
2024/01/15 05:56:25;;;;;;;1.70;1.60;;;1.10;99.90;;;;;;5034380;28;20202;-83
2024/01/15 05:58:52;;;;;;;1.35;0.80;;;1.00;99.90;;;;;;5026007;28;20254;-82
2024/01/15 06:01:19;;;;;;;3.67;1.15;;;1.10;99.90;;;;;;5025315;28;20193;-83
2024/01/15 06:03:44;;;;;;;0.50;0.50;;;1.10;99.90;;;;;;5028084;28;20666;-81
2024/01/15 06:06:13;;;;;;;2.10;1.90;;;1.10;99.90;;;;;;5022234;28;20193;-82
2024/01/15 06:08:39;;;;;;;5.50;5.10;;;1.10;99.90;;;;;;5027121;28;20223;-82
2024/01/15 06:11:07;;;;;;;2.72;2.10;;;1.20;99.90;;;;;;5028945;28;20196;-81
2024/01/15 06:13:34;;;;;;;7.82;3.25;;;1.20;99.90;;;;;;5023809;28;20219;-84
2024/01/15 06:16:01;;;;;;;0.90;0.88;;;1.20;99.90;;;;;;5032299;28;20547;-82
2024/01/15 06:18:28;;;;;;;4.07;3.50;;;1.20;99.90;;;;;;5024712;28;20203;-83
2024/01/15 06:20:54;;;;;;;0.70;0.70;;;1.20;99.90;;;;;;5025382;28;20196;-81
2024/01/15 06:23:22;;;;;;;0.50;0.50;;;1.20;99.90;;;;;;5027381;28;20298;-82
2024/01/15 06:25:49;;;;;;;2.28;2.13;;;1.20;99.90;;;;;;5024004;28;20200;-84
2024/01/15 06:28:16;;;;;;;2.03;1.58;;;1.20;99.90;;;;;;5032292;28;20595;-83
2024/01/15 06:30:43;;;;;;;3.83;3.45;;;1.30;99.90;;;;;;5027394;28;20196;-81
2024/01/15 06:33:09;;;;;;;0.65;0.65;;;1.30;99.90;;;;;;5028931;28;20200;-83
2024/01/15 06:35:36;;;;;;;2.55;0.52;;;1.30;99.90;;;;;;5032122;28;20196;-83
2024/01/15 06:38:03;;;;;;;3.33;2.65;;;1.30;99.90;;;;;;5031449;28;20565;-82
2024/01/15 06:40:31;;;;;;;1.13;1.08;;;1.30;99.90;;;;;;5028198;28;20207;-82
2024/01/15 06:42:58;;;;;;;0.40;0.40;;;1.30;99.90;;;;;;5027006;28;20652;-82
2024/01/15 06:45:24;;;;;;;0.40;0.40;;;1.30;99.90;;;;;;5027551;28;20251;-82
2024/01/15 06:47:51;;;;;;;0.60;0.60;;;1.40;99.90;;;;;;5021304;28;20208;-82
2024/01/15 06:50:18;;;;;;;2.92;2.78;;;1.30;99.90;;;;;;5028450;28;20544;-82
2024/01/15 06:52:44;;;;;;;1.50;1.00;;;1.30;99.90;;;;;;5031557;28;20211;-83
2024/01/15 06:55:10;;;;;;;3.47;3.07;;;1.40;99.90;;;;;;5027939;28;20281;-83
2024/01/15 06:57:39;;;;;;;1.75;1.35;;;1.30;99.90;;;;;;5029992;28;20223;-84
2024/01/15 07:00:08;;;;;;;2.47;2.17;;;1.40;99.90;;;;;;5027172;28;20223;-83
2024/01/15 07:02:35;;;;;;;1.23;1.23;;;1.40;99.90;;;;;;5032611;28;20226;-83
2024/01/15 07:05:01;;;;;;;0.40;0.40;;;1.40;99.90;;;;;;5036150;28;20522;-82
2024/01/15 07:07:29;;;;;;;9.10;3.42;;;1.40;99.90;;;;;;5029224;28;20283;-82
2024/01/15 07:09:56;;;;;;;1.25;1.15;;;1.40;99.90;;;;;;5032215;28;20286;-83
2024/01/15 07:12:23;;;;;;;2.47;2.28;;;1.40;99.90;;;;;;5032835;28;20299;-84
2024/01/15 07:14:51;;;;;;;0.40;0.40;;;1.40;99.90;;;;;;5022178;28;20220;-83
2024/01/15 07:17:18;;;;;;;0.70;0.70;;;1.40;99.90;;;;;;5021097;28;20199;-83
2024/01/15 07:19:44;;;;;;;4.70;1.30;;;1.40;99.90;;;;;;5036075;28;20204;-83
2024/01/15 07:22:11;;;;;;;0.60;0.60;;;1.40;99.90;;;;;;5028526;28;20207;-84
2024/01/15 07:24:38;;;;;;;1.83;1.23;;;1.40;99.90;;;;;;5024223;28;20219;-84
2024/01/15 07:27:05;;;;;;;0.95;0.70;;;1.40;99.90;;;;;;5016543;28;20192;-83
2024/01/15 07:29:33;;;;;;;0.77;0.77;;;1.40;99.90;;;;;;5032951;28;20349;-83
2024/01/15 07:32:01;;;;;;;0.80;0.80;;;1.40;99.90;;;;;;5024101;28;20196;-83
2024/01/15 07:34:28;;;;;;;0.63;0.63;;;1.40;99.90;;;;;;5024811;28;20642;-83
2024/01/15 07:36:54;;;;;;;0.40;0.40;;;1.40;99.90;;;;;;5025175;28;20200;-82
2024/01/15 07:39:22;;;;;;;0.50;0.50;;;1.40;99.90;;;;;;5023188;28;20210;-83
2024/01/15 07:41:49;;;;;;;1.65;1.55;;;1.40;99.90;;;;;;5034634;28;20206;-83
2024/01/15 07:44:16;;;;;;;2.85;2.05;;;1.40;99.90;;;;;;5025564;28;20216;-83
2024/01/15 07:46:45;;;;;;;0.40;0.40;;;1.40;99.90;;;;;;5026770;28;20584;-83
2024/01/15 07:49:13;;;;;;;1.00;1.00;;;1.40;99.90;;;;;;5031443;28;20212;-82
2024/01/15 07:51:40;;;;;;;0.85;0.85;;;1.40;99.90;;;;;;5017475;28;20196;-84
2024/01/15 07:54:07;;;;;;;0.50;0.50;;;1.30;99.90;;;;;;5031737;28;20224;-83
2024/01/15 07:56:34;;;;;;;1.75;1.65;;;1.30;99.90;;;;;;5024889;28;20199;-83
2024/01/15 07:59:01;;;;;;;4.63;2.00;;;1.30;99.90;;;;;;5024693;28;20188;-83
2024/01/15 08:01:28;;;;;;;2.45;1.15;;;1.30;99.90;;;;;;5032454;28;20203;-83
2024/01/15 08:03:55;;;;;;;3.17;2.20;;;1.30;99.90;;;;;;5033482;28;20224;-83
2024/01/15 08:06:23;;;;;;;0.40;0.40;;;1.20;99.90;;;;;;5031493;28;20574;-83
2024/01/15 08:08:50;;;;;;;0.93;0.93;;;1.20;99.90;;;;;;5034189;28;20525;-82
2024/01/15 08:11:16;;;;;;;1.90;1.80;;;1.10;99.90;;;;;;5031256;28;20206;-83
2024/01/15 08:13:43;;;;;;;2.40;1.58;;;1.10;99.90;;;;;;5026636;28;20230;-83
2024/01/15 08:16:10;;;;;;;2.22;2.03;;;1.10;99.90;;;;;;5025011;28;20200;-83
2024/01/15 08:18:37;;;;;;;2.40;2.20;;;1.10;99.90;;;;;;5023852;28;20222;-83
2024/01/15 08:21:04;;;;;;;3.08;1.00;;;1.00;99.90;;;;;;5014524;28;20196;-83
2024/01/15 08:23:32;;;;;;;1.63;0.88;;;1.00;99.90;;;;;;5023264;28;20216;-83
2024/01/15 08:25:59;;;;;;;2.13;1.98;;;1.00;99.90;;;;;;5031783;28;20244;-83
2024/01/15 08:28:25;;;;;;;1.02;0.75;;;1.00;99.90;;;;;;5022498;28;20211;-83
2024/01/15 08:30:52;;;;;;;1.55;0.95;;;1.00;99.90;;;;;;5035232;28;20202;-83
2024/01/15 08:33:19;;;;;;;0.43;0.43;;;1.00;99.90;;;;;;5035580;28;20681;-83
2024/01/15 08:35:46;;;;;;;8.15;1.30;;;1.00;99.90;;;;;;5018291;28;20200;-83
2024/01/15 08:38:12;;;;;;;2.40;2.20;;;1.00;99.90;;;;;;5030706;28;20193;-83
2024/01/15 08:40:40;;;;;;;3.17;2.88;;;1.00;99.90;;;;;;5023740;28;20578;-83
2024/01/15 08:43:07;;;;;;;0.40;0.40;;;1.00;99.90;;;;;;5027672;28;20616;-83
2024/01/15 08:45:34;;;;;;;1.38;0.82;;;1.10;99.90;;;;;;5035608;28;20204;-83
2024/01/15 08:48:01;;;;;;;4.75;3.53;;;1.10;99.90;;;;;;5023498;28;20212;-83
2024/01/15 08:50:28;;;;;;;2.58;2.38;;;1.10;99.90;;;;;;5023256;28;20207;-83
2024/01/15 08:52:55;;;;;;;6.90;1.80;;;1.10;99.90;;;;;;5022764;28;20191;-83
2024/01/15 08:55:22;;;;;;;1.25;1.25;;;1.00;99.90;;;;;;5028865;28;20679;-83
2024/01/15 08:57:50;;;;;;;2.42;2.22;;;1.00;99.90;;;;;;5035559;28;20237;-83
2024/01/15 09:00:18;;;;;;;2.35;1.65;;;1.00;99.90;;;;;;5021365;28;20205;-83
2024/01/15 09:02:45;;;;;;;3.50;1.42;;;0.90;99.90;;;;;;5033035;28;20283;-83
2024/01/15 09:05:12;;;;;;;0.82;0.82;;;0.90;99.90;;;;;;5026892;28;20211;-83
2024/01/15 09:07:39;;;;;;;8.38;3.20;;;0.80;99.90;;;;;;5035977;28;20206;-83
2024/01/15 09:10:07;;;;;;;0.60;0.60;;;0.80;99.90;;;;;;5035261;28;20666;-84
2024/01/15 09:12:33;;;;;;;2.80;1.70;;;0.80;99.90;;;;;;5035623;28;20758;-83
2024/01/15 09:15:04;;;;;;;0.88;0.88;;;0.80;99.90;;;;;;5035395;28;20214;-83
2024/01/15 09:17:30;;;;;;;4.93;2.78;;;0.80;99.90;;;;;;5020848;28;20228;-83
2024/01/15 09:19:57;;;;;;;1.17;1.17;;;0.80;99.90;;;;;;5026801;28;20204;-83
2024/01/15 09:22:24;;;;;;;0.40;0.40;;;0.80;99.90;;;;;;5036125;28;20199;-85
2024/01/15 09:24:51;;;;;;;0.40;0.40;;;0.80;99.90;;;;;;5026723;28;20732;-83
2024/01/15 09:27:17;;;;;;;0.70;0.70;;;0.70;99.90;;;;;;5022185;28;20204;-84
2024/01/15 09:29:45;;;;;;;1.75;1.58;;;0.70;99.90;;;;;;5031520;28;20219;-83
2024/01/15 09:32:15;;;;;;;0.47;0.45;;;0.70;99.90;;;;;;5022985;28;20243;-83
2024/01/15 09:34:42;;;;;;;0.50;0.50;;;0.70;99.90;;;;;;5031544;28;20219;-85
2024/01/15 09:37:09;;;;;;;2.47;2.30;;;0.70;99.90;;;;;;5027037;28;20192;-82
2024/01/15 09:39:36;;;;;;;1.58;1.48;;;0.70;99.90;;;;;;5019432;28;20212;-85
2024/01/15 09:42:04;;;;;;;0.40;0.40;;;0.80;99.90;;;;;;5019631;28;20219;-84
2024/01/15 09:44:31;;;;;;;3.85;3.20;;;0.80;99.90;;;;;;5021509;28;20236;-84
2024/01/15 09:46:58;;;;;;;0.40;0.40;;;0.80;99.90;;;;;;5024483;28;20206;-84
2024/01/15 09:49:27;;;;;;;0.50;0.50;;;0.80;99.90;;;;;;5024399;28;20209;-81
2024/01/15 09:51:55;;;;;;;1.98;1.35;;;0.80;99.90;;;;;;5026486;28;20196;-84
2024/01/15 09:54:22;;;;;;;4.03;2.97;;;0.80;99.90;;;;;;5031308;28;20744;-85
2024/01/15 09:56:48;;;;;;;1.05;0.80;;;0.90;99.90;;;;;;5025560;28;20200;-85
2024/01/15 09:59:17;;;;;;;0.40;0.40;;;0.90;99.90;;;;;;5024310;28;20193;-85
2024/01/15 10:01:44;;;;;;;7.63;4.65;;;0.90;99.90;;;;;;5016330;28;20204;-82
2024/01/15 10:04:12;;;;;;;0.50;0.50;;;0.90;99.90;;;;;;5027096;28;20232;-83
2024/01/15 10:06:45;;;;;;;2.15;0.50;;;1.00;99.90;;;;;;5027306;28;20215;-85
2024/01/15 10:09:14;;;;;;;0.40;0.40;;;0.90;99.90;;;;;;5019808;28;20262;-82
2024/01/15 10:11:42;;;;;;;1.77;1.35;;;1.00;99.90;;;;;;5035336;28;20278;-84
2024/01/15 10:14:09;;;;;;;0.40;0.40;;;1.00;99.90;;;;;;5030351;28;20602;-84
2024/01/15 10:16:36;;;;;;;1.13;1.13;;;1.00;99.90;;;;;;5033142;28;20206;-84
2024/01/15 10:19:03;;;;;;;1.13;1.02;;;1.10;99.90;;;;;;5021638;28;20198;-84
2024/01/15 10:21:34;;;;;;;0.40;0.40;;;1.00;99.90;;;;;;5030653;28;20195;-84
2024/01/15 10:24:03;;;;;;;4.50;1.55;;;1.10;99.90;;;;;;5022777;28;20212;-84
2024/01/15 10:26:30;;;;;;;0.93;0.93;;;1.10;99.90;;;;;;5024981;28;20243;-81
2024/01/15 10:28:58;;;;;;;2.08;1.98;;;1.10;99.90;;;;;;5020940;28;20213;-85
2024/01/15 10:31:26;;;;;;;1.30;1.30;;;1.20;99.90;;;;;;5039281;28;20200;-85
2024/01/15 10:33:53;;;;;;;0.50;0.50;;;1.20;99.90;;;;;;5039309;28;20293;-84
2024/01/15 10:36:20;;;;;;;0.98;0.50;;;1.20;99.90;;;;;;5030715;28;20529;-83
2024/01/15 10:38:47;;;;;;;0.60;0.50;;;1.20;99.90;;;;;;5038334;28;20565;-83
2024/01/15 10:41:16;;;;;;;1.35;1.35;;;1.30;99.90;;;;;;5030952;28;20308;-84
2024/01/15 10:43:43;;;;;;;0.80;0.55;;;1.30;99.90;;;;;;5039835;28;20247;-83
2024/01/15 10:46:10;;;;;;;2.38;0.77;;;1.30;99.90;;;;;;5019542;28;20204;-83
2024/01/15 10:48:37;;;;;;;0.40;0.40;;;1.40;99.90;;;;;;5025507;28;20590;-84
2024/01/15 10:51:10;;;;;;;1.35;1.10;;;1.40;99.90;;;;;;5022342;28;20198;-84
2024/01/15 10:53:39;;;;;;;1.60;1.60;;;1.30;99.90;;;;;;5038983;28;20737;-84
2024/01/15 10:56:08;;;;;;;0.50;0.50;;;1.30;99.90;;;;;;5028430;28;20232;-84
2024/01/15 10:58:38;;;;;;;2.70;2.55;;;1.40;99.90;;;;;;5018947;28;20199;-84
2024/01/15 11:01:05;;;;;;;2.05;1.95;;;1.40;99.90;;;;;;5026827;28;20201;-84
2024/01/15 11:03:32;;;;;;;0.65;0.65;;;1.40;99.90;;;;;;5025198;28;20226;-84
2024/01/15 11:06:00;;;;;;;0.85;0.85;;;1.40;99.90;;;;;;5021995;28;20201;-84
2024/01/15 11:08:27;;;;;;;1.73;1.63;;;1.60;99.90;;;;;;5030144;28;20207;-84
2024/01/15 11:10:55;;;;;;;1.25;0.90;;;1.80;99.90;;;;;;5030203;28;20202;-83
2024/01/15 11:13:23;;;;;;;2.15;1.95;;;1.90;99.90;;;;;;5038106;28;20279;-84
2024/01/15 11:15:59;;;;;;;0.60;0.60;;;1.80;99.90;;;;;;5038712;28;20208;-83
2024/01/15 11:18:28;;;;;;;2.78;1.50;;;1.80;99.90;;;;;;5024196;28;20198;-84
2024/01/15 11:21:27;;;;;;;0.40;0.40;;;1.70;99.90;;;;;;5031319;28;20207;-83
2024/01/15 11:23:56;;;;;;;1.30;0.98;;;1.70;99.90;;;;;;5022216;28;20212;-83
2024/01/15 11:26:35;;;;;;;0.95;0.95;;;1.70;99.90;;;;;;5020704;28;20196;-85
2024/01/15 11:29:04;;;;;;;0.88;0.88;;;1.70;99.90;;;;;;5028052;28;20537;-84
2024/01/15 11:31:59;;;;;;;0.50;0.50;;;1.60;99.90;;;;;;5021736;28;20223;-84
2024/01/15 11:35:01;;;;;;;0.40;0.40;;;1.70;99.90;;;;;;5019470;28;20208;-84
2024/01/15 11:37:29;;;;;;;0.40;0.40;;;1.70;99.90;;;;;;5029753;28;20691;-85
2024/01/15 11:39:57;;;;;;;0.52;0.52;;;1.70;99.90;;;;;;5029297;28;20189;-84
2024/01/15 11:42:24;;;;;;;0.63;0.63;;;1.70;99.90;;;;;;5028699;28;20202;-84
2024/01/15 11:44:51;;;;;;;1.77;1.67;;;1.60;99.90;;;;;;5019519;28;20251;-84
2024/01/15 11:47:53;;;;;;;1.25;0.60;;;1.60;99.90;;;;;;5019108;28;20540;-83
2024/01/15 11:50:22;;;;;;;2.65;0.95;;;1.60;99.90;;;;;;5021730;28;20254;-83
2024/01/15 11:52:57;;;;;;;3.67;3.40;;;1.60;99.90;;;;;;5027802;28;20575;-84
2024/01/15 11:55:29;;;;;;;1.17;0.80;;;1.60;99.90;;;;;;5010065;28;20683;-82
2024/01/15 11:57:56;;;;;;;1.05;0.95;;;1.60;99.90;;;;;;5025241;28;20247;-83
2024/01/15 12:00:23;;;;;;;2.35;0.82;;;1.70;99.90;;;;;;5035315;28;20200;-83
2024/01/15 12:02:51;;;;;;;0.40;0.40;;;1.70;99.90;;;;;;5017898;28;20200;-83
2024/01/15 12:05:21;;;;;;;2.20;2.03;;;1.70;99.90;;;;;;5018473;28;20213;-82
2024/01/15 12:07:50;;;;;;;0.63;0.60;;;1.60;99.90;;;;;;5027308;28;20246;-83
2024/01/15 12:10:19;;;;;;;9.07;1.35;;;1.50;99.90;;;;;;5029196;28;20216;-85
2024/01/15 12:12:59;;;;;;;3.17;1.90;;;1.50;99.90;;;;;;5030738;28;20655;-82
2024/01/15 12:15:28;;;;;;;0.40;0.40;;;1.50;99.90;;;;;;5018480;28;20702;-83
2024/01/15 12:17:57;;;;;;;0.68;0.68;;;1.50;99.90;;;;;;5038179;28;20206;-82
2024/01/15 12:20:26;;;;;;;7.70;1.20;;;1.60;99.90;;;;;;5036743;28;20191;-82
2024/01/15 12:22:52;;;;;;;0.40;0.40;;;1.70;99.90;;;;;;5036095;28;20192;-80
2024/01/15 12:25:19;;;;;;;2.45;0.88;;;1.80;99.90;;;;;;5032644;28;20211;-82
2024/01/15 12:27:47;;;;;;;0.70;0.70;;;1.90;99.90;;;;;;5029052;28;20196;-82
2024/01/15 12:30:15;;;;;;;2.67;2.38;;;2.00;99.90;;;;;;5018251;28;20306;-82
2024/01/15 12:32:42;;;;;;;0.73;0.63;;;2.10;99.90;;;;;;5029209;28;20196;-81
2024/01/15 12:35:09;;;;;;;1.58;1.48;;;2.10;99.90;;;;;;5015900;28;20275;-78
2024/01/15 12:37:38;;;;;;;0.40;0.40;;;2.10;99.90;;;;;;5021529;28;20208;-82
2024/01/15 12:40:06;;;;;;;0.60;0.60;;;2.00;99.90;;;;;;5026667;28;20198;-81
2024/01/15 12:42:33;;;;;;;1.13;0.90;;;2.00;99.90;;;;;;5029657;28;20287;-81
2024/01/15 12:45:01;;;;;;;1.67;1.58;;;1.90;99.90;;;;;;5026387;28;20227;-81
2024/01/15 12:47:28;;;;;;;6.38;0.80;;;1.70;99.90;;;;;;5014986;28;20196;-81
2024/01/15 12:49:54;;;;;;;0.40;0.40;;;1.60;99.90;;;;;;5014765;28;20216;-82
2024/01/15 12:52:22;;;;;;;0.40;0.40;;;1.50;99.90;;;;;;5014329;28;20223;-81
2024/01/15 12:54:51;;;;;;;1.88;1.25;;;1.40;99.90;;;;;;5014983;28;20460;-82
2024/01/15 12:57:18;;;;;;;0.40;0.40;;;1.40;99.90;;;;;;5015620;28;20250;-83